createdAt,value
2022-09-26T00:00:34.771Z,97771.31
2022-09-26T00:01:38.917Z,97777.38
2022-09-26T00:02:40.446Z,97775.50
2022-09-26T00:03:49.584Z,97769.06
2022-09-26T00:04:50.981Z,97771.31
2022-09-26T00:05:52.442Z,97776.63
2022-09-26T00:06:55.943Z,97776.63
2022-09-26T00:07:57.350Z,97770.19
2022-09-26T00:08:59.237Z,97778.50
2022-09-26T00:10:00.661Z,97772.47
2022-09-26T00:11:07.486Z,97779.63
2022-09-26T00:12:08.927Z,97773.59
2022-09-26T00:13:10.344Z,97781.91
2022-09-26T00:14:18.857Z,97767.94
2022-09-26T00:15:20.298Z,97765.66
2022-09-26T00:16:22.288Z,97766.78
2022-09-26T00:17:23.736Z,97771.72
2022-09-26T00:18:25.578Z,97755.81
2022-09-26T00:19:27.065Z,97767.94
2022-09-26T00:20:28.481Z,97759.63
2022-09-26T00:21:31.110Z,97764.16
2022-09-26T00:22:32.676Z,97763.78
2022-09-26T00:23:34.993Z,97766.03
2022-09-26T00:24:36.535Z,97764.91
2022-09-26T00:25:37.945Z,97762.28
2022-09-26T00:26:39.589Z,97755.09
2022-09-26T00:27:41.000Z,97761.13
2022-09-26T00:28:43.068Z,97758.47
2022-09-26T00:29:44.472Z,97763.41
2022-09-26T00:30:45.997Z,97764.16
2022-09-26T00:31:49.000Z,97754.31
2022-09-26T00:32:50.335Z,97764.16
2022-09-26T00:33:52.672Z,97756.59
2022-09-26T00:34:54.067Z,97756.97
2022-09-26T00:35:55.886Z,97764.91
2022-09-26T00:36:57.296Z,97765.31
2022-09-26T00:37:59.033Z,97764.53
2022-09-26T00:39:00.779Z,97763.78
2022-09-26T00:40:02.205Z,97761.88
2022-09-26T00:41:04.471Z,97765.66
2022-09-26T00:42:05.980Z,97760.38
2022-09-26T00:43:42.085Z,97760.38
2022-09-26T00:44:55.348Z,97762.66
2022-09-26T00:46:19.810Z,97760.38
2022-09-26T00:47:32.368Z,97765.31
2022-09-26T00:48:36.322Z,97760.75
2022-09-26T00:49:41.897Z,97762.25
2022-09-26T00:50:43.874Z,97765.66
2022-09-26T00:51:52.458Z,97760.34
2022-09-26T00:53:01.465Z,97754.31
2022-09-26T00:54:03.443Z,97756.94
2022-09-26T00:55:07.432Z,97752.44
2022-09-26T00:56:12.183Z,97755.47
2022-09-26T00:57:18.319Z,97750.16
2022-09-26T00:58:30.905Z,97755.44
2022-09-26T00:59:41.873Z,97756.59
2022-09-26T01:00:46.859Z,97764.53
2022-09-26T01:01:49.998Z,97753.94
2022-09-26T01:02:53.444Z,97757.72
2022-09-26T01:03:56.111Z,97758.88
2022-09-26T01:04:59.567Z,97760.75
2022-09-26T01:06:01.374Z,97753.56
2022-09-26T01:07:08.588Z,97754.72
2022-09-26T01:08:11.907Z,97750.94
2022-09-26T01:09:14.881Z,97753.56
2022-09-26T01:10:16.777Z,97752.81
2022-09-26T01:11:19.721Z,97751.31
2022-09-26T01:12:21.268Z,97755.81
2022-09-26T01:13:23.213Z,97751.66
2022-09-26T01:14:24.960Z,97750.91
2022-09-26T01:15:26.391Z,97751.28
2022-09-26T01:16:28.156Z,97746.75
2022-09-26T01:17:30.736Z,97755.06
2022-09-26T01:18:32.327Z,97748.25
2022-09-26T01:19:56.671Z,97746.75
2022-09-26T01:21:10.128Z,97747.13
2022-09-26T01:22:43.189Z,97753.19
2022-09-26T01:23:44.574Z,97751.66
2022-09-26T01:24:49.001Z,97749.03
2022-09-26T01:26:10.574Z,97750.91
2022-09-26T01:27:46.414Z,97751.66
2022-09-26T01:29:25.674Z,97749.41
2022-09-26T01:30:55.395Z,97751.28
2022-09-26T01:32:43.245Z,97752.06
2022-09-26T01:33:50.895Z,97746.38
2022-09-26T01:35:04.584Z,97745.63
2022-09-26T01:36:39.309Z,97751.28
2022-09-26T01:37:56.212Z,97748.66
2022-09-26T01:39:12.326Z,97750.56
2022-09-26T01:40:24.382Z,97749.03
2022-09-26T01:41:29.176Z,97750.16
2022-09-26T01:42:51.964Z,97747.13
2022-09-26T01:44:08.849Z,97748.28
2022-09-26T01:45:18.991Z,97747.91
2022-09-26T01:46:27.339Z,97752.44
2022-09-26T01:47:44.271Z,97747.53
2022-09-26T01:48:52.398Z,97749.41
2022-09-26T01:50:03.027Z,97753.56
2022-09-26T01:51:12.753Z,97755.09
2022-09-26T01:52:48.395Z,97750.16
2022-09-26T01:54:05.939Z,97753.19
2022-09-26T01:55:10.801Z,97757.72
2022-09-26T01:56:22.838Z,97753.56
2022-09-26T01:57:31.745Z,97756.56
2022-09-26T01:58:51.881Z,97758.09
2022-09-26T01:59:58.753Z,97753.94
2022-09-26T02:01:09.761Z,97757.72
2022-09-26T02:02:19.445Z,97759.59
2022-09-26T02:03:30.625Z,97750.16
2022-09-26T02:04:39.499Z,97748.66
2022-09-26T02:06:05.116Z,97748.66
2022-09-26T02:07:18.041Z,97750.53
2022-09-26T02:08:39.533Z,97752.41
2022-09-26T02:09:45.037Z,97754.72
2022-09-26T02:10:52.955Z,97750.16
2022-09-26T02:11:59.028Z,97748.28
2022-09-26T02:13:09.390Z,97747.16
2022-09-26T02:14:17.584Z,97742.59
2022-09-26T02:15:21.449Z,97742.25
2022-09-26T02:16:32.125Z,97745.63
2022-09-26T02:17:40.782Z,97744.13
2022-09-26T02:18:47.860Z,97742.59
2022-09-26T02:20:02.950Z,97742.25
2022-09-26T02:21:20.780Z,97742.63
2022-09-26T02:22:24.166Z,97738.06
2022-09-26T02:23:25.975Z,97738.84
2022-09-26T02:24:28.823Z,97730.50
2022-09-26T02:25:31.145Z,97732.41
2022-09-26T02:26:33.722Z,97736.56
2022-09-26T02:27:35.388Z,97733.94
2022-09-26T02:28:37.208Z,97730.91
2022-09-26T02:29:39.370Z,97727.13
2022-09-26T02:30:43.453Z,97730.91
2022-09-26T02:31:51.795Z,97724.09
2022-09-26T02:32:53.581Z,97729.41
2022-09-26T02:33:55.484Z,97727.13
2022-09-26T02:34:57.759Z,97720.34
2022-09-26T02:35:59.559Z,97724.50
2022-09-26T02:37:01.320Z,97723.34
2022-09-26T02:38:03.440Z,97719.97
2022-09-26T02:39:05.250Z,97727.91
2022-09-26T02:40:07.501Z,97724.47
2022-09-26T02:41:13.193Z,97725.25
2022-09-26T02:42:22.254Z,97718.81
2022-09-26T02:43:42.831Z,97719.19
2022-09-26T02:45:02.607Z,97719.56
2022-09-26T02:46:41.319Z,97723.34
2022-09-26T02:48:13.199Z,97719.94
2022-09-26T02:49:29.327Z,97715.78
2022-09-26T02:51:07.761Z,97718.00
2022-09-26T02:52:34.159Z,97710.47
2022-09-26T02:53:54.975Z,97708.19
2022-09-26T02:55:35.485Z,97713.53
2022-09-26T02:56:58.772Z,97712.41
2022-09-26T02:58:16.418Z,97711.25
2022-09-26T02:59:35.285Z,97707.47
2022-09-26T03:01:02.501Z,97705.22
2022-09-26T03:02:15.803Z,97702.19
2022-09-26T03:03:32.990Z,97703.31
2022-09-26T03:05:00.611Z,97698.38
2022-09-26T03:06:05.966Z,97698.00
2022-09-26T03:07:11.988Z,97695.34
2022-09-26T03:08:19.911Z,97698.75
2022-09-26T03:09:24.311Z,97693.91
2022-09-26T03:10:27.415Z,97698.03
2022-09-26T03:11:30.364Z,97702.19
2022-09-26T03:12:32.930Z,97699.94
2022-09-26T03:13:37.619Z,97699.94
2022-09-26T03:14:41.578Z,97698.78
2022-09-26T03:15:48.686Z,97701.81
2022-09-26T03:16:51.631Z,97695.03
2022-09-26T03:17:55.057Z,97692.75
2022-09-26T03:19:01.359Z,97693.13
2022-09-26T03:20:12.087Z,97690.13
2022-09-26T03:21:14.912Z,97692.38
2022-09-26T03:22:17.022Z,97698.03
2022-09-26T03:23:22.312Z,97699.56
2022-09-26T03:24:24.819Z,97696.91
2022-09-26T03:25:27.979Z,97692.41
2022-09-26T03:26:31.145Z,97688.97
2022-09-26T03:27:35.245Z,97692.00
2022-09-26T03:28:38.051Z,97689.75
2022-09-26T03:29:40.143Z,97697.69
2022-09-26T03:30:41.576Z,97689.34
2022-09-26T03:31:45.038Z,97687.47
2022-09-26T03:32:46.950Z,97691.25
2022-09-26T03:33:49.177Z,97690.50
2022-09-26T03:34:51.197Z,97689.00
2022-09-26T03:35:52.908Z,97687.84
2022-09-26T03:36:54.320Z,97690.44
2022-09-26T03:37:55.969Z,97685.19
2022-09-26T03:38:57.701Z,97685.59
2022-09-26T03:39:59.105Z,97681.44
2022-09-26T03:41:00.621Z,97682.19
2022-09-26T03:42:02.688Z,97689.72
2022-09-26T03:43:04.163Z,97685.22
2022-09-26T03:44:05.931Z,97676.53
2022-09-26T03:45:12.985Z,97681.44
2022-09-26T03:46:15.898Z,97682.19
2022-09-26T03:47:18.155Z,97677.66
2022-09-26T03:48:19.604Z,97673.53
2022-09-26T03:49:21.523Z,97671.22
2022-09-26T03:50:23.501Z,97679.94
2022-09-26T03:51:25.063Z,97678.03
2022-09-26T03:52:27.018Z,97679.94
2022-09-26T03:53:30.577Z,97679.94
2022-09-26T03:54:32.323Z,97676.16
2022-09-26T03:55:33.758Z,97678.41
2022-09-26T03:56:35.175Z,97665.59
2022-09-26T03:57:36.630Z,97671.59
2022-09-26T03:58:39.003Z,97671.63
2022-09-26T03:59:40.749Z,97670.09
2022-09-26T04:00:42.229Z,97669.72
2022-09-26T04:01:44.330Z,97670.47
2022-09-26T04:02:45.862Z,97669.34
2022-09-26T04:03:50.826Z,97673.13
2022-09-26T04:04:52.756Z,97674.25
2022-09-26T04:05:54.178Z,97670.50
2022-09-26T04:06:55.639Z,97668.97
2022-09-26T04:07:59.112Z,97664.84
2022-09-26T04:09:00.556Z,97673.09
2022-09-26T04:10:02.779Z,97664.84
2022-09-26T04:11:06.871Z,97664.84
2022-09-26T04:12:08.374Z,97658.75
2022-09-26T04:13:09.775Z,97661.44
2022-09-26T04:14:11.340Z,97659.53
2022-09-26T04:15:13.105Z,97664.81
2022-09-26T04:16:15.103Z,97660.28
2022-09-26T04:17:16.821Z,97651.94
2022-09-26T04:18:18.312Z,97661.78
2022-09-26T04:19:19.805Z,97661.00
2022-09-26T04:20:21.608Z,97659.50
2022-09-26T04:21:23.680Z,97659.88
2022-09-26T04:22:25.648Z,97659.88
2022-09-26T04:23:28.453Z,97660.63
2022-09-26T04:24:30.636Z,97657.63
2022-09-26T04:25:36.975Z,97650.06
2022-09-26T04:26:40.447Z,97656.84
2022-09-26T04:27:41.903Z,97649.28
2022-09-26T04:28:43.930Z,97655.34
2022-09-26T04:29:45.899Z,97655.34
2022-09-26T04:30:47.381Z,97648.91
2022-09-26T04:31:51.344Z,97650.06
2022-09-26T04:32:52.889Z,97651.56
2022-09-26T04:33:57.498Z,97653.81
2022-09-26T04:34:58.948Z,97652.69
2022-09-26T04:36:01.913Z,97653.84
2022-09-26T04:37:03.250Z,97651.19
2022-09-26T04:38:04.793Z,97647.78
2022-09-26T04:39:06.970Z,97651.56
2022-09-26T04:40:10.624Z,97648.16
2022-09-26T04:41:13.242Z,97651.19
2022-09-26T04:42:14.720Z,97653.81
2022-09-26T04:43:16.128Z,97648.16
2022-09-26T04:44:18.214Z,97650.81
2022-09-26T04:45:19.701Z,97646.28
2022-09-26T04:46:28.238Z,97651.19
2022-09-26T04:47:32.519Z,97650.81
2022-09-26T04:48:34.588Z,97654.97
2022-09-26T04:49:36.626Z,97645.16
2022-09-26T04:50:38.085Z,97644.38
2022-09-26T04:51:39.696Z,97645.53
2022-09-26T04:52:41.108Z,97649.28
2022-09-26T04:53:43.715Z,97642.09
2022-09-26T04:54:45.517Z,97642.47
2022-09-26T04:55:47.997Z,97638.31
2022-09-26T04:56:49.571Z,97645.50
2022-09-26T04:57:51.115Z,97645.91
2022-09-26T04:58:55.545Z,97647.78
2022-09-26T04:59:57.380Z,97637.97
2022-09-26T05:01:07.064Z,97640.22
2022-09-26T05:02:08.642Z,97634.19
2022-09-26T05:03:10.668Z,97634.94
2022-09-26T05:04:12.454Z,97638.34
2022-09-26T05:05:14.523Z,97634.53
2022-09-26T05:06:17.625Z,97626.25
2022-09-26T05:07:19.508Z,97630.03
2022-09-26T05:08:21.076Z,97640.25
2022-09-26T05:09:22.489Z,97636.88
2022-09-26T05:10:24.379Z,97642.50
2022-09-26T05:11:26.024Z,97632.31
2022-09-26T05:12:27.461Z,97640.22
2022-09-26T05:13:29.337Z,97639.84
2022-09-26T05:14:31.223Z,97632.66
2022-09-26T05:15:33.221Z,97640.56
2022-09-26T05:16:34.855Z,97634.16
2022-09-26T05:17:37.641Z,97632.28
2022-09-26T05:18:39.512Z,97638.34
2022-09-26T05:19:43.055Z,97632.28
2022-09-26T05:20:48.288Z,97646.22
2022-09-26T05:21:49.702Z,97636.03
2022-09-26T05:22:51.183Z,97644.72
2022-09-26T05:24:11.176Z,97636.41
2022-09-26T05:25:30.890Z,97646.25
2022-09-26T05:26:42.092Z,97643.97
2022-09-26T05:27:43.758Z,97645.84
2022-09-26T05:28:49.928Z,97639.81
2022-09-26T05:29:57.342Z,97646.59
2022-09-26T05:30:59.447Z,97640.94
2022-09-26T05:32:01.499Z,97649.25
2022-09-26T05:33:03.164Z,97642.47
2022-09-26T05:34:18.459Z,97640.56
2022-09-26T05:35:23.530Z,97643.94
2022-09-26T05:36:27.385Z,97645.81
2022-09-26T05:37:28.813Z,97640.53
2022-09-26T05:38:30.208Z,97645.09
2022-09-26T05:39:50.364Z,97644.72
2022-09-26T05:40:56.734Z,97642.06
2022-09-26T05:41:59.358Z,97644.34
2022-09-26T05:43:04.275Z,97641.75
2022-09-26T05:44:06.018Z,97638.31
2022-09-26T05:45:08.793Z,97641.31
2022-09-26T05:46:11.857Z,97642.84
2022-09-26T05:47:13.481Z,97637.94
2022-09-26T05:48:17.176Z,97640.94
2022-09-26T05:49:19.017Z,97634.94
2022-09-26T05:50:22.361Z,97635.69
2022-09-26T05:51:24.471Z,97639.47
2022-09-26T05:52:28.477Z,97627.03
2022-09-26T05:53:31.287Z,97641.38
2022-09-26T05:54:32.851Z,97629.66
2022-09-26T05:55:37.254Z,97639.88
2022-09-26T05:56:44.643Z,97635.69
2022-09-26T05:57:54.074Z,97630.81
2022-09-26T05:58:55.514Z,97634.59
2022-09-26T05:59:57.271Z,97644.03
2022-09-26T06:01:10.158Z,97638.75
2022-09-26T06:02:14.319Z,97636.06
2022-09-26T06:03:19.542Z,97634.94
2022-09-26T06:04:21.410Z,97638.72
2022-09-26T06:05:24.471Z,97633.44
2022-09-26T06:06:26.197Z,97637.22
2022-09-26T06:07:27.612Z,97638.34
2022-09-26T06:08:29.137Z,97631.94
2022-09-26T06:09:31.823Z,97634.97
2022-09-26T06:10:33.313Z,97633.13
2022-09-26T06:11:35.362Z,97630.09
2022-09-26T06:12:38.122Z,97631.22
2022-09-26T06:13:41.196Z,97624.41
2022-09-26T06:14:47.080Z,97625.91
2022-09-26T06:15:49.984Z,97628.56
2022-09-26T06:16:51.443Z,97630.81
2022-09-26T06:18:01.788Z,97633.44
2022-09-26T06:19:03.529Z,97632.28
2022-09-26T06:20:06.101Z,97630.78
2022-09-26T06:21:09.716Z,97627.38
2022-09-26T06:22:11.345Z,97631.50
2022-09-26T06:23:13.045Z,97628.47
2022-09-26T06:24:14.521Z,97626.97
2022-09-26T06:25:16.435Z,97633.78
2022-09-26T06:26:23.576Z,97638.31
2022-09-26T06:27:25.464Z,97637.13
2022-09-26T06:28:27.618Z,97627.69
2022-09-26T06:29:29.880Z,97626.53
2022-09-26T06:30:31.428Z,97627.69
2022-09-26T06:31:33.519Z,97623.16
2022-09-26T06:32:36.184Z,97622.75
2022-09-26T06:33:37.656Z,97633.31
2022-09-26T06:34:39.394Z,97625.34
2022-09-26T06:35:40.819Z,97618.50
2022-09-26T06:36:42.770Z,97620.38
2022-09-26T06:37:48.306Z,97615.44
2022-09-26T06:38:50.066Z,97627.53
2022-09-26T06:39:54.682Z,97622.28
2022-09-26T06:41:00.201Z,97618.53
2022-09-26T06:42:03.075Z,97614.34
2022-09-26T06:43:04.779Z,97604.56
2022-09-26T06:44:06.261Z,97616.25
2022-09-26T06:45:09.944Z,97610.94
2022-09-26T06:46:12.772Z,97615.91
2022-09-26T06:47:14.374Z,97613.66
2022-09-26T06:48:20.985Z,97607.66
2022-09-26T06:49:25.382Z,97606.91
2022-09-26T06:50:27.028Z,97606.22
2022-09-26T06:51:28.697Z,97602.06
2022-09-26T06:52:34.027Z,97599.78
2022-09-26T06:53:35.451Z,97600.94
2022-09-26T06:54:36.949Z,97594.50
2022-09-26T06:55:38.415Z,97599.03
2022-09-26T06:56:39.878Z,97595.63
2022-09-26T06:57:42.945Z,97598.66
2022-09-26T06:58:45.341Z,97595.25
2022-09-26T06:59:47.241Z,97591.88
2022-09-26T07:00:48.904Z,97594.94
2022-09-26T07:01:50.645Z,97594.94
2022-09-26T07:02:54.445Z,97587.41
2022-09-26T07:03:55.906Z,97602.53
2022-09-26T07:04:57.356Z,97593.44
2022-09-26T07:05:59.133Z,97600.22
2022-09-26T07:07:00.537Z,97594.19
2022-09-26T07:08:02.921Z,97601.75
2022-09-26T07:09:08.604Z,97611.19
2022-09-26T07:10:15.750Z,97604.03
2022-09-26T07:11:46.248Z,97605.94
2022-09-26T07:12:40.838Z,97604.41
2022-09-26T07:13:42.366Z,97603.28
2022-09-26T07:14:43.960Z,97609.66
2022-09-26T07:15:46.331Z,97596.44
2022-09-26T07:16:52.003Z,97610.81
2022-09-26T07:17:53.590Z,97602.13
2022-09-26T07:18:55.744Z,97605.53
2022-09-26T07:19:57.283Z,97600.25
2022-09-26T07:20:58.767Z,97598.75
2022-09-26T07:22:00.228Z,97602.16
2022-09-26T07:23:03.168Z,97600.63
2022-09-26T07:24:04.660Z,97605.16
2022-09-26T07:25:07.146Z,97604.78
2022-09-26T07:26:08.561Z,97602.91
2022-09-26T07:27:10.398Z,97604.78
2022-09-26T07:28:12.085Z,97604.03
2022-09-26T07:29:13.583Z,97610.81
2022-09-26T07:30:15.209Z,97602.84
2022-09-26T07:31:16.772Z,97609.66
2022-09-26T07:32:18.293Z,97610.41
2022-09-26T07:33:20.038Z,97608.47
2022-09-26T07:34:24.974Z,97609.56
2022-09-26T07:35:27.694Z,97607.03
2022-09-26T07:36:29.219Z,97610.31
2022-09-26T07:37:31.947Z,97614.38
2022-09-26T07:38:33.372Z,97617.56
2022-09-26T07:39:34.890Z,97617.25
2022-09-26T07:40:36.387Z,97623.84
2022-09-26T07:41:37.912Z,97615.81
2022-09-26T07:42:39.631Z,97615.75
2022-09-26T07:45:27.797Z,97626.22
2022-09-26T07:46:43.696Z,97618.50
2022-09-26T07:48:03.821Z,97623.75
2022-09-26T07:49:23.656Z,97626.34
2022-09-26T07:50:25.542Z,97623.94
2022-09-26T07:51:27.092Z,97623.44
2022-09-26T07:52:29.221Z,97627.53
2022-09-26T07:53:30.750Z,97613.81
2022-09-26T07:54:32.273Z,97617.97
2022-09-26T07:55:53.741Z,97622.19
2022-09-26T07:56:55.254Z,97614.41
2022-09-26T07:57:57.967Z,97612.84
2022-09-26T07:58:59.307Z,97612.50
2022-09-26T08:00:22.495Z,97606.44
2022-09-26T08:01:31.305Z,97605.50
2022-09-26T08:02:35.032Z,97598.59
2022-09-26T08:03:50.416Z,97603.81
2022-09-26T08:04:57.622Z,97598.38
2022-09-26T08:06:03.388Z,97593.63
2022-09-26T08:07:04.948Z,97590.41
2022-09-26T08:08:06.466Z,97595.00
2022-09-26T08:09:08.062Z,97588.16
2022-09-26T08:10:19.955Z,97588.56
2022-09-26T08:11:23.496Z,97586.81
2022-09-26T08:12:27.071Z,97578.31
2022-09-26T08:13:30.114Z,97588.19
2022-09-26T08:14:31.554Z,97592.13
2022-09-26T08:15:33.040Z,97593.31
2022-09-26T08:16:34.610Z,97586.78
2022-09-26T08:17:36.190Z,97600.13
2022-09-26T08:18:37.880Z,97597.38
2022-09-26T08:19:39.330Z,97601.03
2022-09-26T08:20:40.811Z,97602.00
2022-09-26T08:21:42.297Z,97588.22
2022-09-26T08:22:43.925Z,97589.53
2022-09-26T08:23:46.979Z,97591.16
2022-09-26T08:24:50.661Z,97588.09
2022-09-26T08:25:52.098Z,97580.16
2022-09-26T08:26:56.676Z,97577.53
2022-09-26T08:27:59.558Z,97579.56
2022-09-26T08:29:02.122Z,97585.69
2022-09-26T08:30:04.446Z,97581.66
2022-09-26T08:31:07.229Z,97581.88
2022-09-26T08:32:08.728Z,97579.03
2022-09-26T08:33:15.339Z,97574.00
2022-09-26T08:34:21.321Z,97570.34
2022-09-26T08:35:26.875Z,97569.97
2022-09-26T08:36:28.374Z,97572.19
2022-09-26T08:37:31.053Z,97576.56
2022-09-26T08:38:33.472Z,97570.88
2022-09-26T08:39:34.967Z,97568.94
2022-09-26T08:40:49.643Z,97574.00
2022-09-26T08:41:58.306Z,97565.66
2022-09-26T08:43:31.775Z,97562.00
2022-09-26T08:44:53.042Z,97564.91
2022-09-26T08:46:34.999Z,97568.44
2022-09-26T08:47:46.620Z,97561.22
2022-09-26T08:49:12.724Z,97567.28
2022-09-26T08:50:32.778Z,97568.59
2022-09-26T08:51:40.663Z,97563.03
2022-09-26T08:52:59.106Z,97560.13
2022-09-26T08:54:15.967Z,97554.25
2022-09-26T08:55:21.851Z,97558.94
2022-09-26T08:56:31.973Z,97559.50
2022-09-26T08:57:45.207Z,97555.63
2022-09-26T08:58:52.310Z,97562.47
2022-09-26T08:59:54.507Z,97554.63
2022-09-26T09:01:00.793Z,97559.00
2022-09-26T09:02:19.028Z,97559.59
2022-09-26T09:03:32.959Z,97566.41
2022-09-26T09:04:44.482Z,97554.38
2022-09-26T09:05:50.237Z,97555.19
2022-09-26T09:07:11.078Z,97554.69
2022-09-26T09:08:22.167Z,97553.13
2022-09-26T09:09:23.717Z,97546.56
2022-09-26T09:10:55.540Z,97553.53
2022-09-26T09:12:24.807Z,97552.00
2022-09-26T09:13:30.749Z,97553.50
2022-09-26T09:14:57.960Z,97558.56
2022-09-26T09:16:21.811Z,97554.34
2022-09-26T09:17:43.024Z,97547.34
2022-09-26T09:19:00.429Z,97547.13
2022-09-26T09:20:26.571Z,97550.44
2022-09-26T09:21:43.574Z,97548.47
2022-09-26T09:22:50.940Z,97555.75
2022-09-26T09:24:18.832Z,97548.69
2022-09-26T09:25:25.182Z,97538.50
2022-09-26T09:28:33.674Z,97535.84
2022-09-26T09:29:56.862Z,97527.81
2022-09-26T09:31:11.415Z,97533.13
2022-09-26T09:32:19.595Z,97530.28
2022-09-26T09:33:39.218Z,97524.28
2022-09-26T09:34:44.459Z,97522.03
2022-09-26T09:35:48.893Z,97522.78
2022-09-26T09:36:58.652Z,97512.06
2022-09-26T09:38:01.564Z,97525.59
2022-09-26T09:39:05.006Z,97517.56
2022-09-26T09:40:16.570Z,97518.66
2022-09-26T09:41:19.827Z,97517.47
2022-09-26T09:42:30.268Z,97514.38
2022-09-26T09:43:45.111Z,97516.97
2022-09-26T09:44:50.464Z,97511.75
2022-09-26T09:45:55.388Z,97521.63
2022-09-26T09:46:57.157Z,97524.34
2022-09-26T09:47:58.862Z,97524.69
2022-09-26T09:49:09.451Z,97525.53
2022-09-26T09:50:38.409Z,97518.69
2022-09-26T09:52:26.643Z,97510.66
2022-09-26T09:53:45.793Z,97503.47
2022-09-26T09:55:16.556Z,97503.00
2022-09-26T09:56:55.636Z,97505.00
2022-09-26T09:58:15.732Z,97502.56
2022-09-26T09:59:47.678Z,97506.34
2022-09-26T10:01:09.847Z,97502.75
2022-09-26T10:02:31.964Z,97497.34
2022-09-26T10:03:39.949Z,97498.56
2022-09-26T10:04:49.994Z,97494.13
2022-09-26T10:05:57.650Z,97484.59
2022-09-26T10:06:59.847Z,97497.91
2022-09-26T10:08:03.079Z,97488.97
2022-09-26T10:09:39.608Z,97485.56
2022-09-26T10:10:49.754Z,97488.53
2022-09-26T10:11:55.057Z,97486.41
2022-09-26T10:12:57.175Z,97485.34
2022-09-26T10:14:07.486Z,97488.69
2022-09-26T10:15:19.756Z,97477.81
2022-09-26T10:16:21.808Z,97476.94
2022-09-26T10:17:24.070Z,97477.25
2022-09-26T10:18:27.098Z,97478.81
2022-09-26T10:19:37.471Z,97480.75
2022-09-26T10:20:52.933Z,97478.78
2022-09-26T10:21:54.506Z,97479.97
2022-09-26T10:22:56.052Z,97476.34
2022-09-26T10:23:58.899Z,97479.91
2022-09-26T10:25:02.119Z,97490.03
2022-09-26T10:26:09.094Z,97471.47
2022-09-26T10:27:25.840Z,97467.53
2022-09-26T10:28:42.841Z,97466.75
2022-09-26T10:29:45.309Z,97477.72
2022-09-26T10:30:50.044Z,97470.47
2022-09-26T10:31:57.194Z,97468.84
2022-09-26T10:33:00.748Z,97462.38
2022-09-26T10:34:19.144Z,97462.50
2022-09-26T10:35:26.756Z,97464.56
2022-09-26T10:36:32.098Z,97464.72
2022-09-26T10:37:36.902Z,97460.31
2022-09-26T10:39:10.008Z,97460.03
2022-09-26T10:40:43.750Z,97462.59
2022-09-26T10:41:46.880Z,97459.31
2022-09-26T10:42:48.408Z,97458.09
2022-09-26T10:43:55.171Z,97456.50
2022-09-26T10:44:58.428Z,97460.31
2022-09-26T10:46:03.353Z,97459.25
2022-09-26T10:47:10.632Z,97458.03
2022-09-26T10:48:12.832Z,97456.81
2022-09-26T10:49:15.825Z,97457.75
2022-09-26T10:50:24.811Z,97459.69
2022-09-26T10:51:45.008Z,97456.50
2022-09-26T10:52:56.030Z,97455.66
2022-09-26T10:54:15.020Z,97454.00
2022-09-26T10:55:31.735Z,97453.00
2022-09-26T10:56:43.357Z,97450.47
2022-09-26T10:57:53.868Z,97450.91
2022-09-26T10:58:59.886Z,97447.72
2022-09-26T11:00:02.561Z,97449.00
2022-09-26T11:01:04.292Z,97443.16
2022-09-26T11:02:06.248Z,97445.22
2022-09-26T11:03:20.223Z,97446.00
2022-09-26T11:04:44.859Z,97443.09
2022-09-26T11:06:00.313Z,97443.41
2022-09-26T11:07:02.127Z,97445.88
2022-09-26T11:08:07.530Z,97436.84
2022-09-26T11:09:11.124Z,97436.56
2022-09-26T11:10:17.059Z,97438.78
2022-09-26T11:11:21.255Z,97433.47
2022-09-26T11:12:28.159Z,97434.16
2022-09-26T11:13:39.107Z,97432.25
2022-09-26T11:14:45.680Z,97430.44
2022-09-26T11:16:08.057Z,97422.72
2022-09-26T11:17:09.628Z,97424.16
2022-09-26T11:18:27.181Z,97428.53
2022-09-26T11:19:35.388Z,97425.75
2022-09-26T11:20:55.123Z,97424.59
2022-09-26T11:22:32.837Z,97424.28
2022-09-26T11:23:52.531Z,97418.13
2022-09-26T11:25:43.382Z,97419.28
2022-09-26T11:27:19.558Z,97417.44
2022-09-26T11:28:31.032Z,97419.28
2022-09-26T11:29:48.997Z,97422.75
2022-09-26T11:30:57.052Z,97422.69
2022-09-26T11:32:00.409Z,97422.63
2022-09-26T11:33:08.601Z,97420.22
2022-09-26T11:34:17.725Z,97426.94
2022-09-26T11:35:43.991Z,97421.72
2022-09-26T11:37:31.090Z,97434.31
2022-09-26T11:38:39.209Z,97421.78
2022-09-26T11:39:52.100Z,97412.50
2022-09-26T11:41:36.878Z,97414.97
2022-09-26T11:42:59.604Z,97410.44
2022-09-26T11:44:06.871Z,97401.81
2022-09-26T11:45:24.904Z,97409.38
2022-09-26T11:46:47.503Z,97402.81
2022-09-26T11:48:12.882Z,97402.22
2022-09-26T11:49:35.824Z,97395.34
2022-09-26T11:51:14.865Z,97396.72
2022-09-26T11:52:44.379Z,97389.34
2022-09-26T11:54:20.369Z,97387.38
2022-09-26T11:55:37.771Z,97384.19
2022-09-26T11:56:49.928Z,97377.25
2022-09-26T11:58:04.347Z,97376.78
2022-09-26T11:59:39.153Z,97370.53
2022-09-26T12:01:10.353Z,97368.22
2022-09-26T12:02:38.654Z,97369.03
2022-09-26T12:04:14.443Z,97372.44
2022-09-26T12:05:50.333Z,97368.91
2022-09-26T12:07:08.853Z,97360.88
2022-09-26T12:08:22.352Z,97359.59
2022-09-26T12:09:42.249Z,97354.50
2022-09-26T12:10:54.633Z,97356.31
2022-09-26T12:12:03.194Z,97355.38
2022-09-26T12:13:35.343Z,97358.59
2022-09-26T12:15:02.452Z,97352.00
2022-09-26T12:16:16.062Z,97354.41
2022-09-26T12:17:36.617Z,97350.06
2022-09-26T12:19:05.173Z,97351.63
2022-09-26T12:20:28.029Z,97346.38
2022-09-26T12:22:04.568Z,97342.09
2022-09-26T12:23:34.052Z,97337.72
2022-09-26T12:24:54.312Z,97336.03
2022-09-26T12:26:17.062Z,97332.16
2022-09-26T12:27:53.208Z,97332.78
2022-09-26T12:29:05.126Z,97331.81
2022-09-26T12:30:25.833Z,97323.31
2022-09-26T12:31:39.206Z,97309.91
2022-09-26T12:32:51.519Z,97312.38
2022-09-26T12:34:13.757Z,97315.41
2022-09-26T12:35:21.064Z,97313.88
2022-09-26T12:36:54.805Z,97314.41
2022-09-26T12:38:35.218Z,97312.56
2022-09-26T12:39:57.364Z,97307.53
2022-09-26T12:41:14.354Z,97308.16
2022-09-26T12:42:37.983Z,97300.38
2022-09-26T12:44:15.333Z,97295.72
2022-09-26T12:45:32.331Z,97299.69
2022-09-26T12:47:05.330Z,97297.69
2022-09-26T12:48:32.567Z,97298.34
2022-09-26T12:50:01.949Z,97286.22
2022-09-26T12:51:45.131Z,97289.63
2022-09-26T12:53:24.650Z,97292.22
2022-09-26T12:55:14.475Z,97293.03
2022-09-26T12:56:38.310Z,97293.31
2022-09-26T12:57:51.764Z,97296.50
2022-09-26T12:59:21.243Z,97286.63
2022-09-26T13:00:23.250Z,97282.88
2022-09-26T13:01:50.125Z,97287.53
2022-09-26T13:03:16.665Z,97284.06
2022-09-26T13:04:55.798Z,97286.72
2022-09-26T13:06:18.557Z,97280.38
2022-09-26T13:07:49.284Z,97272.75
2022-09-26T13:09:06.733Z,97284.25
2022-09-26T13:10:24.027Z,97283.78
2022-09-26T13:11:59.560Z,97270.09
2022-09-26T13:13:18.460Z,97269.63
2022-09-26T13:14:39.505Z,97269.88
2022-09-26T13:16:04.814Z,97261.09
2022-09-26T13:17:16.583Z,97259.38
2022-09-26T13:18:26.706Z,97259.59
2022-09-26T13:19:44.887Z,97259.91
2022-09-26T13:20:51.845Z,97261.63
2022-09-26T13:22:00.212Z,97257.06
2022-09-26T13:23:20.675Z,97259.44
2022-09-26T13:24:28.468Z,97255.75
2022-09-26T13:25:37.280Z,97259.09
2022-09-26T13:26:48.218Z,97251.75
2022-09-26T13:27:52.761Z,97244.72
2022-09-26T13:29:24.440Z,97247.84
2022-09-26T13:30:36.168Z,97248.25
2022-09-26T13:31:46.219Z,97243.66
2022-09-26T13:33:06.056Z,97251.53
2022-09-26T13:34:16.941Z,97244.91
2022-09-26T13:35:24.464Z,97243.75